sensor_id;sensor_type;location;lat;lon;timestamp;pressure;altitude;pressure_sealevel;temperature;humidity
15604;BME280;7902;49.042;9.092;2023-02-14T00:01:47;101007.19;;;7.00;59.33
15604;BME280;7902;49.042;9.092;2023-02-14T00:04:14;100998.47;;;7.01;58.51
15604;BME280;7902;49.042;9.092;2023-02-14T00:06:40;100988.09;;;6.98;58.50
15604;BME280;7902;49.042;9.092;2023-02-14T00:09:10;100982.97;;;6.95;59.18
15604;BME280;7902;49.042;9.092;2023-02-14T00:11:37;100986.69;;;6.86;59.29
15604;BME280;7902;49.042;9.092;2023-02-14T00:14:03;100991.00;;;6.87;58.70
15604;BME280;7902;49.042;9.092;2023-02-14T00:16:48;100990.16;;;6.87;58.67
15604;BME280;7902;49.042;9.092;2023-02-14T00:19:15;100985.88;;;6.83;58.78
15604;BME280;7902;49.042;9.092;2023-02-14T00:21:42;100984.22;;;6.80;59.30
15604;BME280;7902;49.042;9.092;2023-02-14T00:24:14;100988.56;;;6.81;58.47
15604;BME280;7902;49.042;9.092;2023-02-14T00:26:40;100987.69;;;6.81;58.61
15604;BME280;7902;49.042;9.092;2023-02-14T00:29:12;100991.31;;;6.77;59.01
15604;BME280;7902;49.042;9.092;2023-02-14T00:31:39;100988.69;;;6.77;59.02
15604;BME280;7902;49.042;9.092;2023-02-14T00:34:06;100991.47;;;6.69;59.00
15604;BME280;7902;49.042;9.092;2023-02-14T00:36:33;100989.00;;;6.65;58.83
15604;BME280;7902;49.042;9.092;2023-02-14T00:39:04;100995.16;;;6.62;58.89
15604;BME280;7902;49.042;9.092;2023-02-14T00:41:31;100994.41;;;6.58;59.00
15604;BME280;7902;49.042;9.092;2023-02-14T00:43:57;100986.56;;;6.58;58.96
15604;BME280;7902;49.042;9.092;2023-02-14T00:46:23;100986.59;;;6.57;58.58
15604;BME280;7902;49.042;9.092;2023-02-14T00:48:50;100994.41;;;6.58;59.06
15604;BME280;7902;49.042;9.092;2023-02-14T00:51:17;100994.41;;;6.58;58.62
15604;BME280;7902;49.042;9.092;2023-02-14T00:53:44;100991.94;;;6.52;59.47
15604;BME280;7902;49.042;9.092;2023-02-14T00:56:11;100993.66;;;6.53;59.45
15604;BME280;7902;49.042;9.092;2023-02-14T00:58:37;100990.94;;;6.58;59.33
15604;BME280;7902;49.042;9.092;2023-02-14T01:01:03;100994.63;;;6.49;58.95
15604;BME280;7902;49.042;9.092;2023-02-14T01:03:29;100995.53;;;6.48;59.59
15604;BME280;7902;49.042;9.092;2023-02-14T01:05:55;100995.59;;;6.45;59.33
15604;BME280;7902;49.042;9.092;2023-02-14T01:08:22;100993.22;;;6.36;58.59
15604;BME280;7902;49.042;9.092;2023-02-14T01:10:48;100986.44;;;6.29;59.08
15604;BME280;7902;49.042;9.092;2023-02-14T01:13:14;100991.56;;;6.32;58.63
15604;BME280;7902;49.042;9.092;2023-02-14T01:15:43;100993.38;;;6.30;58.87
15604;BME280;7902;49.042;9.092;2023-02-14T01:18:09;100989.91;;;6.30;59.29
15604;BME280;7902;49.042;9.092;2023-02-14T01:20:35;100994.44;;;6.22;59.18
15604;BME280;7902;49.042;9.092;2023-02-14T01:23:01;100998.88;;;6.18;59.63
15604;BME280;7902;49.042;9.092;2023-02-14T01:25:28;100994.63;;;6.15;58.80
15604;BME280;7902;49.042;9.092;2023-02-14T01:27:54;100990.38;;;6.11;59.23
15604;BME280;7902;49.042;9.092;2023-02-14T01:30:20;100994.63;;;6.14;59.25
15604;BME280;7902;49.042;9.092;2023-02-14T01:32:46;100996.63;;;6.03;59.08
15604;BME280;7902;49.042;9.092;2023-02-14T01:35:12;100990.47;;;6.07;58.86
15604;BME280;7902;49.042;9.092;2023-02-14T01:37:38;100984.75;;;5.91;58.99
15604;BME280;7902;49.042;9.092;2023-02-14T01:40:05;100988.03;;;5.99;59.14
15604;BME280;7902;49.042;9.092;2023-02-14T01:42:34;100985.41;;;6.01;59.36
15604;BME280;7902;49.042;9.092;2023-02-14T01:45:21;100992.56;;;5.93;59.18
15604;BME280;7902;49.042;9.092;2023-02-14T01:47:54;100985.56;;;5.93;59.47
15604;BME280;7902;49.042;9.092;2023-02-14T01:50:25;100988.22;;;5.92;59.12
15604;BME280;7902;49.042;9.092;2023-02-14T01:53:04;100989.78;;;5.99;59.45
15604;BME280;7902;49.042;9.092;2023-02-14T01:55:33;100987.47;;;5.87;59.38
15604;BME280;7902;49.042;9.092;2023-02-14T01:58:05;100992.03;;;5.75;59.12
15604;BME280;7902;49.042;9.092;2023-02-14T02:00:34;100988.34;;;5.84;59.55
15604;BME280;7902;49.042;9.092;2023-02-14T02:03:20;100984.22;;;5.75;59.50
15604;BME280;7902;49.042;9.092;2023-02-14T02:05:50;100989.50;;;5.74;59.46
15604;BME280;7902;49.042;9.092;2023-02-14T02:08:18;100994.66;;;5.75;59.30
15604;BME280;7902;49.042;9.092;2023-02-14T02:10:45;100994.84;;;5.68;59.48
15604;BME280;7902;49.042;9.092;2023-02-14T02:13:17;101001.16;;;5.56;59.57
15604;BME280;7902;49.042;9.092;2023-02-14T02:15:57;100999.41;;;5.57;59.08
15604;BME280;7902;49.042;9.092;2023-02-14T02:18:37;101001.22;;;5.53;59.85
15604;BME280;7902;49.042;9.092;2023-02-14T02:30:17;100987.38;;;5.51;59.35
15604;BME280;7902;49.042;9.092;2023-02-14T02:36:26;100984.72;;;5.53;59.34
15604;BME280;7902;49.042;9.092;2023-02-14T02:41:59;100980.47;;;5.50;59.29
15604;BME280;7902;49.042;9.092;2023-02-14T02:50:48;100986.03;;;5.34;59.35
15604;BME280;7902;49.042;9.092;2023-02-14T02:59:09;100985.44;;;5.19;59.29
15604;BME280;7902;49.042;9.092;2023-02-14T03:04:35;100987.38;;;5.10;59.47
15604;BME280;7902;49.042;9.092;2023-02-14T03:07:38;100982.25;;;5.07;59.28
15604;BME280;7902;49.042;9.092;2023-02-14T03:10:28;100989.97;;;5.11;59.23
15604;BME280;7902;49.042;9.092;2023-02-14T03:21:23;100988.31;;;5.07;59.34
15604;BME280;7902;49.042;9.092;2023-02-14T03:26:38;100990.16;;;5.02;59.30
15604;BME280;7902;49.042;9.092;2023-02-14T03:29:14;100983.28;;;4.98;59.20
15604;BME280;7902;49.042;9.092;2023-02-14T03:34:52;100985.31;;;4.84;59.11
15604;BME280;7902;49.042;9.092;2023-02-14T03:37:28;100984.25;;;4.93;58.55
15604;BME280;7902;49.042;9.092;2023-02-14T03:40:32;100982.63;;;4.89;59.19
15604;BME280;7902;49.042;9.092;2023-02-14T03:43:07;100981.00;;;4.81;59.34
15604;BME280;7902;49.042;9.092;2023-02-14T03:45:39;100982.78;;;4.79;59.32
15604;BME280;7902;49.042;9.092;2023-02-14T03:48:10;100978.31;;;4.86;59.12
15604;BME280;7902;49.042;9.092;2023-02-14T03:50:40;100977.63;;;4.76;59.42
15604;BME280;7902;49.042;9.092;2023-02-14T03:53:09;100982.00;;;4.74;59.59
15604;BME280;7902;49.042;9.092;2023-02-14T03:55:42;100975.69;;;4.86;59.15
15604;BME280;7902;49.042;9.092;2023-02-14T04:00:39;100968.81;;;4.83;59.28
15604;BME280;7902;49.042;9.092;2023-02-14T04:03:09;100969.53;;;4.92;59.06
15604;BME280;7902;49.042;9.092;2023-02-14T04:05:40;100971.34;;;4.86;59.19
15604;BME280;7902;49.042;9.092;2023-02-14T04:08:09;100970.38;;;4.94;58.93
15604;BME280;7902;49.042;9.092;2023-02-14T04:10:36;100968.63;;;4.93;58.97
15604;BME280;7902;49.042;9.092;2023-02-14T04:13:04;100966.84;;;4.95;58.91
15604;BME280;7902;49.042;9.092;2023-02-14T04:15:30;100974.75;;;4.90;58.49
15604;BME280;7902;49.042;9.092;2023-02-14T04:17:56;100972.06;;;4.95;58.98
15604;BME280;7902;49.042;9.092;2023-02-14T04:20:41;100980.53;;;5.04;59.11
15604;BME280;7902;49.042;9.092;2023-02-14T04:23:06;100976.28;;;5.00;59.13
15604;BME280;7902;49.042;9.092;2023-02-14T04:25:32;100982.31;;;5.04;58.80
15604;BME280;7902;49.042;9.092;2023-02-14T04:27:58;100986.59;;;5.06;58.93
15604;BME280;7902;49.042;9.092;2023-02-14T04:30:24;100974.44;;;5.07;59.55
15604;BME280;7902;49.042;9.092;2023-02-14T04:32:50;100986.47;;;5.12;59.79
15604;BME280;7902;49.042;9.092;2023-02-14T04:35:16;100968.28;;;5.11;59.90
15604;BME280;7902;49.042;9.092;2023-02-14T04:37:42;100976.00;;;5.15;59.94
15604;BME280;7902;49.042;9.092;2023-02-14T04:40:08;100982.94;;;5.15;60.15
15604;BME280;7902;49.042;9.092;2023-02-14T04:42:34;100976.88;;;5.14;60.18
15604;BME280;7902;49.042;9.092;2023-02-14T04:45:00;100977.59;;;5.22;60.05
15604;BME280;7902;49.042;9.092;2023-02-14T04:47:26;100974.06;;;5.23;59.88
15604;BME280;7902;49.042;9.092;2023-02-14T04:49:52;100974.94;;;5.24;59.82
15604;BME280;7902;49.042;9.092;2023-02-14T04:52:18;100978.56;;;5.17;60.25
15604;BME280;7902;49.042;9.092;2023-02-14T04:54:44;100981.97;;;5.19;60.16
15604;BME280;7902;49.042;9.092;2023-02-14T04:57:10;100973.09;;;5.29;60.33
15604;BME280;7902;49.042;9.092;2023-02-14T04:59:35;100975.63;;;5.32;60.35
15604;BME280;7902;49.042;9.092;2023-02-14T05:02:01;100970.38;;;5.35;60.46
15604;BME280;7902;49.042;9.092;2023-02-14T05:04:27;100979.00;;;5.37;60.24
15604;BME280;7902;49.042;9.092;2023-02-14T05:06:53;100973.78;;;5.37;60.03
15604;BME280;7902;49.042;9.092;2023-02-14T05:09:19;100972.91;;;5.38;60.85
15604;BME280;7902;49.042;9.092;2023-02-14T05:11:45;100975.59;;;5.34;60.98
15604;BME280;7902;49.042;9.092;2023-02-14T05:14:11;100972.19;;;5.32;61.11
15604;BME280;7902;49.042;9.092;2023-02-14T05:16:38;100966.13;;;5.31;61.12
15604;BME280;7902;49.042;9.092;2023-02-14T05:19:04;100967.75;;;5.35;60.44
15604;BME280;7902;49.042;9.092;2023-02-14T05:21:30;100969.72;;;5.24;61.81
15604;BME280;7902;49.042;9.092;2023-02-14T05:23:59;100965.84;;;5.42;60.90
15604;BME280;7902;49.042;9.092;2023-02-14T05:26:25;100971.25;;;5.34;61.34
15604;BME280;7902;49.042;9.092;2023-02-14T05:28:51;100971.13;;;5.40;61.20
15604;BME280;7902;49.042;9.092;2023-02-14T05:31:17;100966.69;;;5.45;60.97
15604;BME280;7902;49.042;9.092;2023-02-14T05:33:43;100972.09;;;5.35;61.57
15604;BME280;7902;49.042;9.092;2023-02-14T05:36:09;100965.06;;;5.40;61.59
15604;BME280;7902;49.042;9.092;2023-02-14T05:38:35;100972.19;;;5.32;61.90
15604;BME280;7902;49.042;9.092;2023-02-14T05:41:01;100968.63;;;5.36;61.82
15604;BME280;7902;49.042;9.092;2023-02-14T05:43:27;100965.06;;;5.38;61.71
15604;BME280;7902;49.042;9.092;2023-02-14T05:45:52;100973.00;;;5.32;61.61
15604;BME280;7902;49.042;9.092;2023-02-14T05:48:19;100974.53;;;5.42;61.69
15604;BME280;7902;49.042;9.092;2023-02-14T05:50:45;100965.97;;;5.37;61.84
15604;BME280;7902;49.042;9.092;2023-02-14T05:53:11;100966.69;;;5.45;61.37
15604;BME280;7902;49.042;9.092;2023-02-14T05:55:37;100969.31;;;5.44;61.33
15604;BME280;7902;49.042;9.092;2023-02-14T05:58:04;100975.34;;;5.46;61.74
15604;BME280;7902;49.042;9.092;2023-02-14T06:00:30;100976.06;;;5.52;61.59
15604;BME280;7902;49.042;9.092;2023-02-14T06:02:56;100975.16;;;5.55;61.09
15604;BME280;7902;49.042;9.092;2023-02-14T06:05:22;100987.09;;;5.65;61.19
15604;BME280;7902;49.042;9.092;2023-02-14T06:07:48;100991.69;;;5.52;61.68
15604;BME280;7902;49.042;9.092;2023-02-14T06:10:18;100986.59;;;5.46;61.56
15604;BME280;7902;49.042;9.092;2023-02-14T06:12:45;100981.34;;;5.49;61.29
15604;BME280;7902;49.042;9.092;2023-02-14T06:15:12;100986.69;;;5.43;61.80
15604;BME280;7902;49.042;9.092;2023-02-14T06:17:38;100986.59;;;5.46;61.64
15604;BME280;7902;49.042;9.092;2023-02-14T06:20:05;100988.31;;;5.47;61.45
15604;BME280;7902;49.042;9.092;2023-02-14T06:22:31;100983.06;;;5.50;61.57
15604;BME280;7902;49.042;9.092;2023-02-14T06:24:57;101000.16;;;5.63;60.92
15604;BME280;7902;49.042;9.092;2023-02-14T06:27:23;100993.34;;;5.56;61.27
15604;BME280;7902;49.042;9.092;2023-02-14T06:29:49;101001.16;;;5.56;61.40
15604;BME280;7902;49.042;9.092;2023-02-14T06:32:14;101001.22;;;5.53;61.71
15604;BME280;7902;49.042;9.092;2023-02-14T06:34:40;101001.78;;;5.67;61.15
15604;BME280;7902;49.042;9.092;2023-02-14T06:37:06;100994.38;;;5.49;61.45
15604;BME280;7902;49.042;9.092;2023-02-14T06:39:32;100991.19;;;5.37;61.89
15604;BME280;7902;49.042;9.092;2023-02-14T06:41:58;100994.63;;;5.37;61.90
15604;BME280;7902;49.042;9.092;2023-02-14T06:44:24;100993.94;;;5.29;62.34
15604;BME280;7902;49.042;9.092;2023-02-14T06:46:50;100999.03;;;5.35;62.42
15604;BME280;7902;49.042;9.092;2023-02-14T06:49:16;100997.88;;;5.48;62.12
15604;BME280;7902;49.042;9.092;2023-02-14T06:51:42;100990.50;;;5.27;62.56
15604;BME280;7902;49.042;9.092;2023-02-14T06:54:08;100993.72;;;5.40;62.27
15604;BME280;7902;49.042;9.092;2023-02-14T06:56:34;100999.00;;;5.37;62.09
15604;BME280;7902;49.042;9.092;2023-02-14T06:58:59;100996.31;;;5.40;62.23
15604;BME280;7902;49.042;9.092;2023-02-14T07:01:25;100996.53;;;5.29;62.17
15604;BME280;7902;49.042;9.092;2023-02-14T07:03:51;100995.91;;;5.18;62.56
15604;BME280;7902;49.042;9.092;2023-02-14T07:06:17;101002.63;;;5.28;62.43
15604;BME280;7902;49.042;9.092;2023-02-14T07:08:43;100995.53;;;5.36;61.95
15604;BME280;7902;49.042;9.092;2023-02-14T07:11:09;100985.53;;;5.56;61.29
15604;BME280;7902;49.042;9.092;2023-02-14T07:13:35;100994.38;;;5.49;61.75
15604;BME280;7902;49.042;9.092;2023-02-14T07:16:01;100995.06;;;5.57;61.42
15604;BME280;7902;49.042;9.092;2023-02-14T07:18:27;100992.16;;;5.31;62.10
15604;BME280;7902;49.042;9.092;2023-02-14T07:20:53;100993.53;;;5.47;61.67
15604;BME280;7902;49.042;9.092;2023-02-14T07:23:18;100993.63;;;5.43;61.89
15604;BME280;7902;49.042;9.092;2023-02-14T07:25:44;100992.00;;;5.37;62.13
15604;BME280;7902;49.042;9.092;2023-02-14T07:28:10;100999.94;;;5.32;62.34
15604;BME280;7902;49.042;9.092;2023-02-14T07:30:36;100998.91;;;5.40;61.70
15604;BME280;7902;49.042;9.092;2023-02-14T07:33:02;100998.16;;;5.35;61.64
15604;BME280;7902;49.042;9.092;2023-02-14T07:35:28;100994.03;;;5.23;62.07
15604;BME280;7902;49.042;9.092;2023-02-14T07:37:54;100997.59;;;5.19;62.19
15604;BME280;7902;49.042;9.092;2023-02-14T07:40:20;100993.22;;;5.22;62.61
15604;BME280;7902;49.042;9.092;2023-02-14T07:42:53;100997.50;;;5.25;62.56
15604;BME280;7902;49.042;9.092;2023-02-14T07:45:20;101005.13;;;5.34;62.32
15604;BME280;7902;49.042;9.092;2023-02-14T07:47:52;100999.31;;;5.21;62.17
15604;BME280;7902;49.042;9.092;2023-02-14T07:50:19;101002.88;;;5.16;62.95
15604;BME280;7902;49.042;9.092;2023-02-14T07:52:45;100997.69;;;5.16;62.82
15604;BME280;7902;49.042;9.092;2023-02-14T07:55:11;101001.06;;;5.21;62.31
15604;BME280;7902;49.042;9.092;2023-02-14T07:57:37;100995.34;;;5.02;63.15
15604;BME280;7902;49.042;9.092;2023-02-14T08:00:05;100999.59;;;5.06;63.01
15604;BME280;7902;49.042;9.092;2023-02-14T08:02:31;100997.59;;;5.19;62.63
15604;BME280;7902;49.042;9.092;2023-02-14T08:04:57;101004.44;;;5.26;62.74
15604;BME280;7902;49.042;9.092;2023-02-14T08:07:22;101000.97;;;5.25;62.83
15604;BME280;7902;49.042;9.092;2023-02-14T08:09:48;101010.31;;;5.34;62.17
15604;BME280;7902;49.042;9.092;2023-02-14T08:12:14;101003.59;;;5.24;62.97
15604;BME280;7902;49.042;9.092;2023-02-14T08:14:59;100999.13;;;5.29;62.65
15604;BME280;7902;49.042;9.092;2023-02-14T08:17:45;100996.44;;;5.34;62.57
15604;BME280;7902;49.042;9.092;2023-02-14T08:20:11;100991.22;;;5.35;62.41
15604;BME280;7902;49.042;9.092;2023-02-14T08:22:37;100990.94;;;5.47;62.29
15604;BME280;7902;49.042;9.092;2023-02-14T08:25:03;101002.22;;;5.46;62.69
15604;BME280;7902;49.042;9.092;2023-02-14T08:27:29;100999.94;;;5.32;62.93
15604;BME280;7902;49.042;9.092;2023-02-14T08:29:55;101001.59;;;5.37;62.64
15604;BME280;7902;49.042;9.092;2023-02-14T08:32:21;101004.22;;;5.35;62.78
15604;BME280;7902;49.042;9.092;2023-02-14T08:34:47;101004.81;;;5.48;62.65
15604;BME280;7902;49.042;9.092;2023-02-14T08:37:12;100995.47;;;5.39;62.85
15604;BME280;7902;49.042;9.092;2023-02-14T08:39:38;100992.31;;;5.63;62.03
15604;BME280;7902;49.042;9.092;2023-02-14T08:42:05;100993.72;;;5.40;63.02
15604;BME280;7902;49.042;9.092;2023-02-14T08:44:31;100994.84;;;5.66;61.69
15604;BME280;7902;49.042;9.092;2023-02-14T08:46:57;100989.63;;;5.66;62.02
15604;BME280;7902;49.042;9.092;2023-02-14T08:49:23;100990.69;;;5.59;62.19
15604;BME280;7902;49.042;9.092;2023-02-14T08:51:49;100989.03;;;5.55;62.49
15604;BME280;7902;49.042;9.092;2023-02-14T08:54:15;100990.59;;;5.64;62.35
15604;BME280;7902;49.042;9.092;2023-02-14T08:56:41;100993.00;;;5.71;62.23
15604;BME280;7902;49.042;9.092;2023-02-14T08:59:07;100985.94;;;5.77;61.91
15604;BME280;7902;49.042;9.092;2023-02-14T09:01:33;100985.22;;;5.70;62.16
15604;BME280;7902;49.042;9.092;2023-02-14T09:04:00;100989.13;;;5.91;62.22
15604;BME280;7902;49.042;9.092;2023-02-14T09:06:27;100987.22;;;5.97;61.45
15604;BME280;7902;49.042;9.092;2023-02-14T09:08:52;100989.78;;;5.99;61.77
15604;BME280;7902;49.042;9.092;2023-02-14T09:11:22;100976.81;;;5.97;61.49
15604;BME280;7902;49.042;9.092;2023-02-14T09:13:49;100978.56;;;5.97;62.07
15604;BME280;7902;49.042;9.092;2023-02-14T09:16:17;100976.75;;;5.99;62.17
15604;BME280;7902;49.042;9.092;2023-02-14T09:18:43;100985.50;;;5.98;61.72
15604;BME280;7902;49.042;9.092;2023-02-14T09:21:12;100976.59;;;6.05;62.00
15604;BME280;7902;49.042;9.092;2023-02-14T09:23:38;100981.72;;;6.09;61.23
15604;BME280;7902;49.042;9.092;2023-02-14T09:26:06;100979.66;;;6.22;61.46
15604;BME280;7902;49.042;9.092;2023-02-14T09:28:32;100977.97;;;6.21;61.43
15604;BME280;7902;49.042;9.092;2023-02-14T09:31:16;100978.09;;;6.15;61.75
15604;BME280;7902;49.042;9.092;2023-02-14T09:33:43;100965.94;;;6.14;61.87
15604;BME280;7902;49.042;9.092;2023-02-14T09:36:09;100971.94;;;6.17;61.52
15604;BME280;7902;49.042;9.092;2023-02-14T09:38:38;100969.16;;;6.25;61.33
15604;BME280;7902;49.042;9.092;2023-02-14T09:41:06;100967.47;;;6.23;61.64
15604;BME280;7902;49.042;9.092;2023-02-14T09:46:25;100970.78;;;6.29;61.70
15604;BME280;7902;49.042;9.092;2023-02-14T09:48:53;100957.63;;;6.34;61.21
15604;BME280;7902;49.042;9.092;2023-02-14T09:51:23;100953.50;;;6.25;61.30
15604;BME280;7902;49.042;9.092;2023-02-14T09:53:57;100954.13;;;6.35;61.70
15604;BME280;7902;49.042;9.092;2023-02-14T09:59:02;100952.94;;;6.46;61.43
15604;BME280;7902;49.042;9.092;2023-02-14T10:01:35;100947.41;;;6.58;61.55
15604;BME280;7902;49.042;9.092;2023-02-14T10:04:30;100938.34;;;6.72;60.85
15604;BME280;7902;49.042;9.092;2023-02-14T10:07:05;100940.22;;;6.67;61.11
15604;BME280;7902;49.042;9.092;2023-02-14T10:09:45;100940.66;;;6.82;60.58
15604;BME280;7902;49.042;9.092;2023-02-14T10:14:58;100933.69;;;7.12;60.25
15604;BME280;7902;49.042;9.092;2023-02-14T10:17:39;100938.91;;;7.12;60.30
15604;BME280;7902;49.042;9.092;2023-02-14T10:20:31;100938.03;;;7.13;60.50
15604;BME280;7902;49.042;9.092;2023-02-14T10:23:18;100937.03;;;7.17;60.37
15604;BME280;7902;49.042;9.092;2023-02-14T10:25:58;100937.75;;;7.22;60.37
15604;BME280;7902;49.042;9.092;2023-02-14T10:28:30;100931.75;;;7.20;60.70
15604;BME280;7902;49.042;9.092;2023-02-14T10:33:40;100933.59;;;7.44;59.41
15604;BME280;7902;49.042;9.092;2023-02-14T10:36:17;100928.34;;;7.44;59.36
15604;BME280;7902;49.042;9.092;2023-02-14T10:49:40;100907.97;;;7.56;59.66
15604;BME280;7902;49.042;9.092;2023-02-14T10:55:18;100900.97;;;7.58;59.39
15604;BME280;7902;49.042;9.092;2023-02-14T10:57:50;100904.06;;;7.69;59.07
15604;BME280;7902;49.042;9.092;2023-02-14T11:00:25;100892.13;;;7.62;59.77
15604;BME280;7902;49.042;9.092;2023-02-14T11:02:56;100894.28;;;7.75;59.59
15604;BME280;7902;49.042;9.092;2023-02-14T11:05:33;100901.97;;;7.80;59.32
15604;BME280;7902;49.042;9.092;2023-02-14T11:08:00;100901.41;;;7.70;59.07
15604;BME280;7902;49.042;9.092;2023-02-14T11:10:31;100898.75;;;7.72;59.03
15604;BME280;7902;49.042;9.092;2023-02-14T11:12:58;100893.38;;;7.76;59.19
15604;BME280;7902;49.042;9.092;2023-02-14T11:15:29;100890.63;;;7.81;59.02
15604;BME280;7902;49.042;9.092;2023-02-14T11:18:23;100887.03;;;7.83;60.46
15604;BME280;7902;49.042;9.092;2023-02-14T11:21:05;100879.94;;;7.87;59.98
15604;BME280;7902;49.042;9.092;2023-02-14T11:23:33;100872.16;;;7.85;59.80
15604;BME280;7902;49.042;9.092;2023-02-14T11:26:01;100864.88;;;7.95;60.08
15604;BME280;7902;49.042;9.092;2023-02-14T11:28:27;100867.81;;;7.84;59.75
15604;BME280;7902;49.042;9.092;2023-02-14T11:30:53;100869.16;;;7.96;59.90
15604;BME280;7902;49.042;9.092;2023-02-14T11:35:50;100856.31;;;7.90;60.23
15604;BME280;7902;49.042;9.092;2023-02-14T11:38:29;100847.84;;;8.08;58.35
15604;BME280;7902;49.042;9.092;2023-02-14T11:40:56;100848.47;;;8.15;58.67
15604;BME280;7902;49.042;9.092;2023-02-14T11:43:36;100851.84;;;8.18;57.89
15604;BME280;7902;49.042;9.092;2023-02-14T11:49:00;100843.03;;;8.21;58.82
15604;BME280;7902;49.042;9.092;2023-02-14T11:51:32;100838.44;;;8.27;57.89
15604;BME280;7902;49.042;9.092;2023-02-14T11:54:00;100843.34;;;8.38;57.24
15604;BME280;7902;49.042;9.092;2023-02-14T11:56:46;100848.50;;;8.40;57.33
15604;BME280;7902;49.042;9.092;2023-02-14T11:59:42;100833.25;;;8.26;58.53
15604;BME280;7902;49.042;9.092;2023-02-14T12:02:20;100830.59;;;8.27;59.05
15604;BME280;7902;49.042;9.092;2023-02-14T12:04:51;100832.00;;;8.38;57.60
15604;BME280;7902;49.042;9.092;2023-02-14T12:07:26;100821.75;;;8.31;57.91
15604;BME280;7902;49.042;9.092;2023-02-14T12:15:39;100816.50;;;8.31;59.26
15604;BME280;7902;49.042;9.092;2023-02-14T12:26:34;100795.09;;;8.44;57.26
15604;BME280;7902;49.042;9.092;2023-02-14T12:31:53;100791.47;;;8.48;57.06
15604;BME280;7902;49.042;9.092;2023-02-14T12:34:21;100796.25;;;8.60;57.24
15604;BME280;7902;49.042;9.092;2023-02-14T12:37:02;100787.59;;;8.58;58.56
15604;BME280;7902;49.042;9.092;2023-02-14T12:44:52;100775.19;;;8.63;57.11
15604;BME280;7902;49.042;9.092;2023-02-14T12:50:28;100771.78;;;8.61;57.57
15604;BME280;7902;49.042;9.092;2023-02-14T13:03:59;100761.06;;;8.67;57.27
15604;BME280;7902;49.042;9.092;2023-02-14T13:22:54;100734.66;;;8.73;58.00
15604;BME280;7902;49.042;9.092;2023-02-14T13:25:30;100734.00;;;8.90;57.12
15604;BME280;7902;49.042;9.092;2023-02-14T13:28:01;100723.44;;;8.91;58.22
15604;BME280;7902;49.042;9.092;2023-02-14T13:30:32;100726.34;;;9.05;57.90
15604;BME280;7902;49.042;9.092;2023-02-14T13:33:02;100724.16;;;9.16;57.75
15604;BME280;7902;49.042;9.092;2023-02-14T13:35:31;100721.53;;;9.16;57.31
15604;BME280;7902;49.042;9.092;2023-02-14T13:38:11;100725.41;;;9.08;57.25
15604;BME280;7902;49.042;9.092;2023-02-14T13:40:40;100720.63;;;9.17;57.94
15604;BME280;7902;49.042;9.092;2023-02-14T13:43:06;100719.69;;;9.18;57.38
15604;BME280;7902;49.042;9.092;2023-02-14T13:48:16;100718.00;;;9.17;57.21
15604;BME280;7902;49.042;9.092;2023-02-14T13:53:42;100716.97;;;9.21;56.66
15604;BME280;7902;49.042;9.092;2023-02-14T13:58:55;100705.41;;;9.05;57.75
15604;BME280;7902;49.042;9.092;2023-02-14T14:01:32;100705.84;;;9.37;58.01
15604;BME280;7902;49.042;9.092;2023-02-14T14:04:02;100705.47;;;9.46;56.73
15604;BME280;7902;49.042;9.092;2023-02-14T14:06:28;100698.38;;;9.48;56.99
15604;BME280;7902;49.042;9.092;2023-02-14T14:08:55;100692.34;;;9.46;57.56
15604;BME280;7902;49.042;9.092;2023-02-14T14:14:02;100691.97;;;9.55;56.63
15604;BME280;7902;49.042;9.092;2023-02-14T14:16:33;100691.56;;;9.44;56.65
15604;BME280;7902;49.042;9.092;2023-02-14T14:19:49;100692.16;;;9.50;56.59
15604;BME280;7902;49.042;9.092;2023-02-14T14:22:02;100690.59;;;9.46;57.07
15604;BME280;7902;49.042;9.092;2023-02-14T14:24:37;100694.28;;;9.61;57.58
15604;BME280;7902;49.042;9.092;2023-02-14T14:30:05;100686.78;;;9.53;55.89
15604;BME280;7902;49.042;9.092;2023-02-14T14:32:36;100687.63;;;9.54;55.80
15604;BME280;7902;49.042;9.092;2023-02-14T14:35:15;100684.59;;;9.43;57.13
15604;BME280;7902;49.042;9.092;2023-02-14T14:37:56;100684.81;;;9.58;56.57
15604;BME280;7902;49.042;9.092;2023-02-14T14:40:25;100675.94;;;9.61;56.26
15604;BME280;7902;49.042;9.092;2023-02-14T14:42:53;100675.03;;;9.62;56.79
15604;BME280;7902;49.042;9.092;2023-02-14T14:45:25;100677.09;;;9.55;57.86
15604;BME280;7902;49.042;9.092;2023-02-14T14:47:55;100686.13;;;9.68;57.83
15604;BME280;7902;49.042;9.092;2023-02-14T14:50:25;100684.94;;;9.55;56.47
15604;BME280;7902;49.042;9.092;2023-02-14T14:52:54;100678.97;;;9.52;57.80
15604;BME280;7902;49.042;9.092;2023-02-14T14:55:27;100685.66;;;9.59;57.68
15604;BME280;7902;49.042;9.092;2023-02-14T14:57:57;100672.19;;;9.66;56.97
15604;BME280;7902;49.042;9.092;2023-02-14T15:00:29;100674.81;;;9.66;56.38
15604;BME280;7902;49.042;9.092;2023-02-14T15:05:31;100671.88;;;9.74;56.38
15604;BME280;7902;49.042;9.092;2023-02-14T15:08:11;100676.78;;;9.82;56.87
15604;BME280;7902;49.042;9.092;2023-02-14T15:10:38;100671.69;;;9.79;57.34
15604;BME280;7902;49.042;9.092;2023-02-14T15:13:04;100673.84;;;9.69;56.58
15604;BME280;7902;49.042;9.092;2023-02-14T15:15:50;100671.47;;;9.83;57.50
15604;BME280;7902;49.042;9.092;2023-02-14T15:18:16;100668.41;;;9.74;56.84
15604;BME280;7902;49.042;9.092;2023-02-14T15:20:48;100667.41;;;9.76;56.51
15604;BME280;7902;49.042;9.092;2023-02-14T15:23:19;100665.03;;;9.70;56.85
15604;BME280;7902;49.042;9.092;2023-02-14T15:25:47;100666.56;;;9.76;56.53
15604;BME280;7902;49.042;9.092;2023-02-14T15:28:29;100669.16;;;9.76;57.03
15604;BME280;7902;49.042;9.092;2023-02-14T15:31:00;100663.28;;;9.70;57.10
15604;BME280;7902;49.042;9.092;2023-02-14T15:33:28;100670.94;;;9.75;56.63
15604;BME280;7902;49.042;9.092;2023-02-14T15:35:56;100663.47;;;9.66;56.54
15604;BME280;7902;49.042;9.092;2023-02-14T15:38:23;100657.06;;;9.73;56.76
15604;BME280;7902;49.042;9.092;2023-02-14T15:40:51;100655.50;;;9.69;56.24
15604;BME280;7902;49.042;9.092;2023-02-14T15:43:35;100647.28;;;9.77;55.89
15604;BME280;7902;49.042;9.092;2023-02-14T15:48:49;100659.78;;;9.70;56.80
15604;BME280;7902;49.042;9.092;2023-02-14T15:51:19;100656.81;;;9.59;56.63
15604;BME280;7902;49.042;9.092;2023-02-14T15:53:51;100656.91;;;9.76;57.58